Time;durP1;ratioP1;P1;durP2;ratioP2;P2;SDS_P1;SDS_P2;PMS_P1;PMS_P2;Temp;Humidity;BMP_temperature;BMP_pressure;BME280_temperature;BME280_humidity;BME280_pressure;Samples;Min_cycle;Max_cycle;Signal;HPM_P1;HPM_P2
2021/07/17 00:02:03;;;;;;;8.23;6.30;;;;;;;23.25;79.27;99852.91;6042712;23;20250;-66
2021/07/17 00:04:28;;;;;;;12.25;7.53;;;;;;;23.25;79.38;99864.38;6042785;23;20019;-65
2021/07/17 00:06:54;;;;;;;9.02;6.80;;;;;;;23.26;79.38;99865.94;6042733;23;20078;-66
2021/07/17 00:09:19;;;;;;;10.23;6.28;;;;;;;23.29;79.78;99856.38;6042480;23;20003;-66
2021/07/17 00:11:45;;;;;;;13.68;7.10;;;;;;;23.29;79.91;99854.28;6042569;23;20082;-65
2021/07/17 00:14:10;;;;;;;8.48;6.20;;;;;;;23.26;79.80;99857.34;6042722;23;20030;-65
2021/07/17 00:16:36;;;;;;;11.20;6.88;;;;;;;23.26;79.56;99863.09;6042761;23;20308;-65
2021/07/17 00:19:02;;;;;;;8.20;6.32;;;;;;;23.24;79.52;99859.94;6017579;23;20003;-62
2021/07/17 00:21:28;;;;;;;7.90;6.43;;;;;;;23.25;79.75;99855.78;6042579;23;20078;-66
2021/07/17 00:23:53;;;;;;;11.25;7.10;;;;;;;23.25;80.02;99859.44;6042875;23;20030;-65
2021/07/17 00:26:19;;;;;;;7.95;5.93;;;;;;;23.26;80.37;99857.34;6042355;23;20412;-61
2021/07/17 00:28:44;;;;;;;6.72;6.03;;;;;;;23.24;80.06;99872.19;6042605;23;20013;-64
2021/07/17 00:31:09;;;;;;;8.70;6.85;;;;;;;23.22;79.41;99873.97;6043076;23;20004;-65
2021/07/17 00:33:35;;;;;;;9.27;6.80;;;;;;;23.21;79.39;99878.16;6042944;23;20016;-61
2021/07/17 00:36:00;;;;;;;9.45;7.20;;;;;;;23.22;79.46;99862.50;6042514;23;20005;-64
2021/07/17 00:38:25;;;;;;;9.13;6.60;;;;;;;23.22;79.36;99865.38;6042241;23;20011;-62
2021/07/17 00:40:51;;;;;;;8.33;6.63;;;;;;;23.21;79.54;99869.53;6042699;23;20003;-60
2021/07/17 00:43:17;;;;;;;12.85;7.43;;;;;;;23.19;80.01;99858.56;6042579;23;20261;-65
2021/07/17 00:45:42;;;;;;;12.13;7.10;;;;;;;23.19;79.99;99852.06;6042347;23;20372;-66
2021/07/17 00:48:07;;;;;;;10.50;6.93;;;;;;;23.21;80.14;99852.34;6042613;23;20015;-67
2021/07/17 00:50:33;;;;;;;10.65;6.80;;;;;;;23.20;80.18;99859.38;6042382;23;20011;-67
2021/07/17 00:52:59;;;;;;;10.82;7.03;;;;;;;23.18;80.14;99873.41;6044014;23;20011;-65
2021/07/17 00:55:27;;;;;;;11.95;6.82;;;;;;;23.17;80.70;99883.31;6044691;23;20289;-66
2021/07/17 00:57:53;;;;;;;10.43;7.70;;;;;;;23.16;81.07;99890.34;6044233;23;20059;-65
2021/07/17 01:00:21;;;;;;;10.70;7.82;;;;;;;23.15;81.11;99877.28;6044363;23;20062;-61
2021/07/17 01:02:54;;;;;;;11.15;7.78;;;;;;;23.15;80.70;99862.97;6044329;23;20066;-64
2021/07/17 01:05:20;;;;;;;12.80;7.38;;;;;;;23.15;80.73;99852.28;6043799;23;20376;-60
2021/07/17 01:07:46;;;;;;;13.13;6.57;;;;;;;23.13;80.41;99852.78;6019344;23;20006;-63
2021/07/17 01:10:13;;;;;;;10.90;7.90;;;;;;;23.15;80.45;99840.03;6044299;23;20058;-64
2021/07/17 01:12:38;;;;;;;11.55;7.75;;;;;;;23.16;80.61;99824.41;6044300;23;19999;-62
2021/07/17 01:15:05;;;;;;;11.38;7.22;;;;;;;23.16;80.89;99812.94;6044150;23;20272;-62
2021/07/17 01:17:31;;;;;;;11.90;7.32;;;;;;;23.15;81.21;99809.28;6044482;23;20014;-61
2021/07/17 01:19:57;;;;;;;10.82;7.38;;;;;;;23.13;81.45;99814.72;6043976;23;20257;-67
2021/07/17 01:22:22;;;;;;;13.50;8.10;;;;;;;23.12;81.06;99824.63;6044104;23;20123;-66
2021/07/17 01:24:47;;;;;;;10.75;7.13;;;;;;;23.10;80.96;99839.47;6044080;23;20007;-67
2021/07/17 01:27:17;;;;;;;8.73;7.78;;;;;;;23.09;81.17;99843.63;6043786;23;20265;-66
2021/07/17 01:29:44;;;;;;;13.15;8.95;;;;;;;23.07;81.20;99840.47;6043949;23;20078;-67
2021/07/17 01:32:09;;;;;;;9.57;7.60;;;;;;;23.09;81.52;99831.38;6044051;23;20373;-66
2021/07/17 01:34:35;;;;;;;12.60;8.27;;;;;;;23.07;81.28;99823.28;6043704;23;20020;-64
2021/07/17 01:37:00;;;;;;;11.98;7.78;;;;;;;23.08;81.62;99813.38;6043723;23;19999;-65
2021/07/17 01:39:26;;;;;;;17.20;8.60;;;;;;;23.06;81.53;99810.22;6044062;23;20003;-63
2021/07/17 01:41:51;;;;;;;11.50;8.20;;;;;;;23.05;81.62;99817.25;6043838;23;20003;-66
2021/07/17 01:44:16;;;;;;;11.27;8.43;;;;;;;23.03;82.06;99805.50;6043224;23;20432;-65
2021/07/17 01:46:43;;;;;;;10.20;7.90;;;;;;;23.01;82.45;99795.81;6042872;23;20273;-66
2021/07/17 01:49:09;;;;;;;9.77;8.10;;;;;;;23.00;82.63;99799.97;6018720;23;20013;-66
2021/07/17 01:51:35;;;;;;;12.02;8.30;;;;;;;22.98;82.52;99808.28;6044081;23;20010;-67
2021/07/17 01:54:00;;;;;;;12.50;7.80;;;;;;;22.97;82.74;99806.72;6043811;23;20011;-67
2021/07/17 01:56:27;;;;;;;12.05;7.97;;;;;;;22.92;82.53;99799.63;6043850;23;20006;-67
2021/07/17 01:58:54;;;;;;;11.43;8.50;;;;;;;22.92;82.85;99804.56;6044031;23;20042;-66
2021/07/17 02:01:20;;;;;;;15.73;8.60;;;;;;;22.89;83.25;99812.09;6018738;23;20074;-64
2021/07/17 02:03:47;;;;;;;11.40;7.82;;;;;;;22.87;83.41;99819.63;6043548;23;20308;-66
2021/07/17 02:06:13;;;;;;;13.90;8.60;;;;;;;22.85;83.70;99817.25;6043733;23;20011;-61
2021/07/17 02:08:42;;;;;;;13.18;8.20;;;;;;;22.83;83.77;99825.56;6043561;23;20011;-66
2021/07/17 02:11:08;;;;;;;11.13;8.65;;;;;;;22.82;83.96;99821.13;6044016;23;20007;-63
2021/07/17 02:13:34;;;;;;;11.27;8.73;;;;;;;22.81;83.96;99823.22;6043643;23;20086;-67
2021/07/17 02:15:59;;;;;;;12.35;9.25;;;;;;;22.81;83.93;99810.97;6043629;23;20041;-66
2021/07/17 02:18:32;;;;;;;11.00;8.85;;;;;;;22.81;83.55;99814.63;6043254;23;20424;-67
2021/07/17 02:21:00;;;;;;;9.70;8.00;;;;;;;22.80;83.61;99817.94;6043531;23;20003;-62
2021/07/17 02:23:26;;;;;;;13.93;9.02;;;;;;;22.79;83.14;99820.03;6043766;23;20535;-66
2021/07/17 02:25:51;;;;;;;11.52;8.65;;;;;;;22.77;83.08;99814.00;6043715;23;20317;-63
2021/07/17 02:28:17;;;;;;;10.40;8.95;;;;;;;22.77;83.36;99816.09;6043462;23;20010;-66
2021/07/17 02:30:42;;;;;;;12.50;8.50;;;;;;;22.75;83.36;99815.81;6018332;23;20042;-66
2021/07/17 02:33:07;;;;;;;11.88;8.32;;;;;;;22.74;83.45;99814.22;6043591;23;20341;-65
2021/07/17 02:35:33;;;;;;;13.25;7.85;;;;;;;22.74;83.43;99820.75;6043214;23;20027;-63
2021/07/17 02:37:58;;;;;;;9.07;8.02;;;;;;;22.70;83.69;99810.78;6043322;23;20018;-63
2021/07/17 02:40:24;;;;;;;10.93;8.13;;;;;;;22.69;83.65;99809.97;6043490;23;20395;-63
2021/07/17 02:42:49;;;;;;;10.98;8.52;;;;;;;22.69;83.92;99814.91;6043288;23;20007;-64
2021/07/17 02:45:15;;;;;;;11.80;8.15;;;;;;;22.66;83.97;99824.50;6043388;23;20036;-66
2021/07/17 02:47:40;;;;;;;17.25;8.95;;;;;;;22.65;83.61;99828.66;6042986;23;20007;-66
2021/07/17 02:50:07;;;;;;;8.30;7.40;;;;;;;22.65;83.83;99828.66;6043406;23;20074;-63
2021/07/17 02:52:33;;;;;;;9.90;7.85;;;;;;;22.63;83.81;99832.03;6043128;23;20003;-65
2021/07/17 02:54:59;;;;;;;12.57;7.93;;;;;;;22.62;83.78;99826.81;6043444;23;20018;-66
2021/07/17 02:57:24;;;;;;;12.48;7.65;;;;;;;22.61;83.40;99819.50;6043393;23;20260;-65
2021/07/17 02:59:50;;;;;;;13.35;7.65;;;;;;;22.58;83.52;99817.66;6043205;23;20007;-67
2021/07/17 03:02:15;;;;;;;11.70;7.35;;;;;;;22.58;83.22;99814.78;6043131;23;20399;-67
2021/07/17 03:04:41;;;;;;;11.60;7.43;;;;;;;22.57;83.09;99813.22;6043164;23;20003;-66
2021/07/17 03:07:06;;;;;;;9.50;7.07;;;;;;;22.55;83.19;99804.31;6043148;23;20011;-66
2021/07/17 03:09:31;;;;;;;11.20;7.07;;;;;;;22.55;83.17;99815.78;6042923;23;20057;-63
2021/07/17 03:11:57;;;;;;;9.90;7.32;;;;;;;22.54;82.92;99812.13;6043110;23;20007;-67
2021/07/17 03:14:22;;;;;;;7.35;6.57;;;;;;;22.52;82.71;99812.63;6042640;23;20261;-67
2021/07/17 03:16:47;;;;;;;8.23;6.38;;;;;;;22.51;82.69;99811.06;6042643;23;20084;-67
2021/07/17 03:19:13;;;;;;;13.82;7.13;;;;;;;22.48;82.87;99805.53;6043386;23;20014;-66
2021/07/17 03:21:39;;;;;;;8.98;6.15;;;;;;;22.45;82.67;99809.38;6043071;23;20014;-67
2021/07/17 03:24:05;;;;;;;9.43;6.30;;;;;;;22.42;82.71;99796.84;6043104;23;20007;-66
2021/07/17 03:26:31;;;;;;;8.52;5.63;;;;;;;22.39;82.71;99797.84;6042985;23;20079;-66
2021/07/17 03:28:56;;;;;;;9.00;6.40;;;;;;;22.36;82.65;99798.84;6042944;23;20320;-66
2021/07/17 03:31:29;;;;;;;7.90;6.13;;;;;;;22.35;82.73;99790.75;6017753;23;20372;-65
2021/07/17 03:33:55;;;;;;;7.97;6.22;;;;;;;22.34;82.72;99789.97;6042791;23;20018;-66
2021/07/17 03:36:21;;;;;;;7.45;5.53;;;;;;;22.33;82.17;99799.84;6043033;23;20010;-63
2021/07/17 03:38:46;;;;;;;12.60;6.32;;;;;;;22.32;82.02;99798.28;6042836;23;20007;-67
2021/07/17 03:41:12;;;;;;;9.77;5.97;;;;;;;22.32;81.72;99792.56;6042851;23;20007;-67
2021/07/17 03:43:37;;;;;;;9.05;5.15;;;;;;;22.30;81.61;99803.72;6042906;23;20063;-67
2021/07/17 03:46:02;;;;;;;6.22;4.93;;;;;;;22.29;81.46;99821.38;6042566;23;20300;-63
2021/07/17 03:48:28;;;;;;;10.75;5.07;;;;;;;22.27;81.33;99827.63;6043131;23;20356;-65
2021/07/17 03:50:53;;;;;;;7.78;5.13;;;;;;;22.27;81.38;99835.41;6042798;23;20015;-65
2021/07/17 03:53:18;;;;;;;6.82;5.07;;;;;;;22.28;81.41;99837.00;6042897;23;20083;-63
2021/07/17 03:55:44;;;;;;;9.68;5.97;;;;;;;22.29;81.61;99832.84;6042935;23;20007;-67
2021/07/17 03:58:09;;;;;;;9.73;5.97;;;;;;;;;;6042794;23;20007;-63
2021/07/17 04:00:34;;;;;;;14.63;6.13;;;;;;;22.27;81.80;99841.94;6042754;23;20223;-63
2021/07/17 04:03:03;;;;;;;9.63;5.45;;;;;;;22.30;82.03;99837.28;6017707;23;20014;-63
2021/07/17 04:05:28;;;;;;;8.15;5.72;;;;;;;22.30;82.58;99838.06;6042678;23;20015;-64
2021/07/17 04:07:54;;;;;;;9.65;6.28;;;;;;;22.31;82.70;99833.91;6042862;23;20003;-66
2021/07/17 04:10:19;;;;;;;8.80;5.45;;;;;;;22.33;82.79;99834.22;6042854;23;20007;-59
2021/07/17 04:12:44;;;;;;;9.02;5.40;;;;;;;22.35;83.09;99831.63;6042946;23;20260;-66
2021/07/17 04:15:10;;;;;;;8.73;5.43;;;;;;;22.35;82.80;99828.78;6042349;23;20379;-66
2021/07/17 04:17:36;;;;;;;9.43;6.13;;;;;;;22.36;82.81;99824.63;6042850;23;20447;-66
2021/07/17 04:20:02;;;;;;;13.55;6.28;;;;;;;22.38;82.94;99830.63;6042467;23;20034;-67
2021/07/17 04:22:28;;;;;;;9.50;6.13;;;;;;;22.39;83.36;99837.16;6042885;23;20003;-66
2021/07/17 04:24:53;;;;;;;7.88;5.47;;;;;;;22.38;83.12;99835.56;6042871;23;20066;-66
2021/07/17 04:27:18;;;;;;;8.30;5.25;;;;;;;22.37;83.07;99834.00;6044263;23;20015;-66
2021/07/17 04:29:44;;;;;;;7.55;5.38;;;;;;;22.37;83.31;99836.84;6044311;23;20387;-63
2021/07/17 04:32:09;;;;;;;8.90;5.72;;;;;;;22.36;83.36;99838.94;6044417;23;20372;-62
2021/07/17 04:34:36;;;;;;;9.80;6.10;;;;;;;22.38;83.64;99836.34;6044538;23;20288;-67
2021/07/17 04:37:01;;;;;;;13.98;6.15;;;;;;;22.39;83.66;99826.47;6044274;23;20394;-67
2021/07/17 04:39:26;;;;;;;8.85;6.03;;;;;;;22.41;83.58;99832.50;6044452;23;20007;-66
2021/07/17 04:41:52;;;;;;;9.68;5.80;;;;;;;22.42;83.54;99824.69;6044484;23;20041;-65
2021/07/17 04:44:17;;;;;;;8.70;5.15;;;;;;;22.41;83.77;99832.50;6043217;23;20010;-67
2021/07/17 04:46:43;;;;;;;9.90;5.70;;;;;;;22.40;83.76;99825.19;6044286;23;20419;-60
2021/07/17 04:49:08;;;;;;;10.25;5.80;;;;;;;22.41;83.62;99820.25;6044381;23;20280;-67
2021/07/17 04:51:34;;;;;;;9.30;5.45;;;;;;;22.42;83.77;99824.69;6044173;23;20010;-66
2021/07/17 04:54:00;;;;;;;8.38;5.57;;;;;;;22.43;83.61;99827.06;6044386;23;20003;-64
2021/07/17 04:56:25;;;;;;;11.52;5.35;;;;;;;22.42;83.51;99825.47;6044360;23;19999;-66
2021/07/17 04:58:50;;;;;;;6.95;5.22;;;;;;;22.43;83.79;99829.13;6044067;23;20272;-66
2021/07/17 05:01:16;;;;;;;8.05;5.40;;;;;;;22.43;83.49;99826.28;6044137;23;20014;-66
2021/07/17 05:03:41;;;;;;;8.65;5.40;;;;;;;22.44;83.45;99840.09;6044340;23;20361;-64
2021/07/17 05:06:06;;;;;;;7.40;5.13;;;;;;;22.46;83.29;99840.41;6044228;23;20014;-67
2021/07/17 05:08:32;;;;;;;6.35;5.50;;;;;;;22.47;83.48;99844.84;6043904;23;20007;-66
2021/07/17 05:10:57;;;;;;;7.40;5.35;;;;;;;22.48;83.48;99846.41;6044257;23;20003;-67
2021/07/17 05:13:24;;;;;;;9.88;5.63;;;;;;;22.51;83.47;99839.69;6043945;23;20038;-67
2021/07/17 05:15:50;;;;;;;8.73;5.53;;;;;;;22.51;83.27;99839.69;6044340;23;20039;-66
2021/07/17 05:18:16;;;;;;;6.88;5.07;;;;;;;22.51;83.13;99845.41;6044169;23;20082;-63
2021/07/17 05:20:43;;;;;;;11.52;5.22;;;;;;;22.53;83.09;99839.19;6044190;23;20003;-63
2021/07/17 05:23:09;;;;;;;10.65;5.88;;;;;;;22.52;83.45;99841.28;6043926;23;20098;-64
2021/07/17 05:25:35;;;;;;;9.20;5.28;;;;;;;22.54;83.49;99831.38;6044003;23;20012;-66
2021/07/17 05:28:01;;;;;;;7.10;5.47;;;;;;;22.52;83.30;99832.69;6043785;23;20015;-65
2021/07/17 05:30:26;;;;;;;11.13;6.32;;;;;;;22.51;83.29;99822.50;6043998;23;20023;-67
2021/07/17 05:32:51;;;;;;;8.55;4.82;;;;;;;22.48;83.66;99817.78;6043878;23;20014;-67
2021/07/17 05:35:17;;;;;;;11.98;5.80;;;;;;;22.48;84.02;99826.38;6043694;23;20023;-67
2021/07/17 05:37:43;;;;;;;6.70;5.13;;;;;;;22.48;84.16;99834.19;6043713;23;20387;-67
2021/07/17 05:40:09;;;;;;;9.70;5.53;;;;;;;22.47;83.94;99844.84;6043889;23;20379;-67
2021/07/17 05:42:35;;;;;;;12.68;5.28;;;;;;;22.47;84.08;99849.78;6043695;23;20268;-66
2021/07/17 05:45:00;;;;;;;9.02;5.72;;;;;;;22.51;84.27;99851.16;6044036;23;20003;-66
2021/07/17 05:47:26;;;;;;;8.20;5.45;;;;;;;22.55;83.49;99864.47;6043625;23;20038;-66
2021/07/17 05:49:52;;;;;;;9.77;5.28;;;;;;;22.58;83.65;99863.47;6043827;23;20003;-66
2021/07/17 05:52:17;;;;;;;12.23;5.78;;;;;;;22.60;83.14;99863.75;6043890;23;20014;-66
2021/07/17 05:54:42;;;;;;;7.80;5.32;;;;;;;22.63;83.07;99875.00;6043520;23;20007;-66
2021/07/17 05:57:08;;;;;;;11.00;5.68;;;;;;;22.65;83.26;99868.78;6043750;23;20098;-67
2021/07/17 05:59:34;;;;;;;7.43;5.68;;;;;;;22.65;83.15;99868.78;6018742;23;20042;-67
2021/07/17 06:02:00;;;;;;;8.85;5.82;;;;;;;22.65;82.60;99877.38;6018820;23;20094;-67
2021/07/17 06:04:25;;;;;;;9.60;5.50;;;;;;;22.67;82.51;99871.91;6043800;23;20033;-66
2021/07/17 06:06:50;;;;;;;9.85;5.22;;;;;;;22.68;82.80;99870.63;6043523;23;20010;-66
2021/07/17 06:09:16;;;;;;;8.75;5.80;;;;;;;22.69;82.34;99883.66;6043785;23;20010;-66
2021/07/17 06:11:41;;;;;;;8.48;5.38;;;;;;;22.70;82.09;99879.53;6043145;23;20010;-66
2021/07/17 06:14:07;;;;;;;5.97;4.70;;;;;;;22.70;82.38;99879.53;6043677;23;20047;-67
2021/07/17 06:16:32;;;;;;;8.68;5.30;;;;;;;22.71;82.19;99881.09;6043566;23;20015;-66
2021/07/17 06:18:57;;;;;;;8.63;5.38;;;;;;;22.71;81.83;99878.22;6043541;23;20058;-67
2021/07/17 06:21:23;;;;;;;6.35;5.07;;;;;;;22.72;81.64;99866.25;6043641;23;20260;-63
2021/07/17 06:23:48;;;;;;;7.10;5.00;;;;;;;22.74;81.99;99868.66;6043555;23;20042;-67
2021/07/17 06:26:13;;;;;;;9.73;5.18;;;;;;;22.75;82.58;99855.91;6043084;23;20067;-67
2021/07/17 06:28:40;;;;;;;10.68;5.65;;;;;;;22.76;82.88;99855.41;6043393;23;20023;-66
2021/07/17 06:31:05;;;;;;;7.72;5.50;;;;;;;22.77;83.13;99856.19;6043599;23;20246;-60
2021/07/17 06:33:30;;;;;;;10.73;5.53;;;;;;;22.76;83.51;99846.81;6043549;23;20127;-65
2021/07/17 06:35:55;;;;;;;10.00;5.78;;;;;;;22.77;83.96;99850.47;6043296;23;20038;-64
2021/07/17 06:38:21;;;;;;;9.40;5.60;;;;;;;22.76;84.11;99848.91;6043494;23;20055;-59
2021/07/17 06:40:46;;;;;;;8.35;5.50;;;;;;;22.77;84.45;99844.75;6043010;23;20059;-60
2021/07/17 06:43:11;;;;;;;6.85;5.15;;;;;;;22.79;84.19;99840.09;6043297;23;20003;-59
2021/07/17 06:45:37;;;;;;;8.00;5.43;;;;;;;22.79;84.30;99836.44;6043145;23;20011;-65
2021/07/17 06:48:02;;;;;;;9.73;5.68;;;;;;;22.81;84.18;99851.84;6043154;23;20237;-60
2021/07/17 06:50:28;;;;;;;10.82;5.47;;;;;;;22.80;84.46;99850.25;6042839;23;20009;-59
2021/07/17 06:52:53;;;;;;;8.93;4.90;;;;;;;22.81;84.51;99862.53;6043224;23;20007;-60
2021/07/17 06:55:19;;;;;;;9.80;5.47;;;;;;;22.81;84.23;99874.00;6043081;23;20014;-60
2021/07/17 06:57:47;;;;;;;11.27;5.70;;;;;;;22.83;84.44;99871.41;6043244;23;20007;-60
2021/07/17 07:00:16;;;;;;;7.00;5.57;;;;;;;22.83;84.51;99865.69;6043160;23;20003;-65
2021/07/17 07:02:42;;;;;;;7.93;5.68;;;;;;;22.83;84.47;99864.91;6043213;23;20007;-65
2021/07/17 07:05:09;;;;;;;10.88;5.60;;;;;;;22.83;84.87;99859.94;6043228;23;20013;-65
2021/07/17 07:07:35;;;;;;;10.23;6.03;;;;;;;22.86;84.68;99872.50;6043460;23;20389;-65
2021/07/17 07:10:03;;;;;;;8.32;5.93;;;;;;;22.87;85.17;99860.53;6018069;23;20034;-64
2021/07/17 07:12:28;;;;;;;12.02;6.53;;;;;;;22.87;84.65;99857.66;6043252;23;20007;-66
2021/07/17 07:14:53;;;;;;;9.02;5.70;;;;;;;22.87;84.46;99860.53;6043002;23;20003;-65
2021/07/17 07:17:19;;;;;;;8.55;6.32;;;;;;;22.89;84.60;99863.69;6043372;23;20380;-66
2021/07/17 07:19:44;;;;;;;7.18;5.25;;;;;;;22.91;84.84;99858.22;6043117;23;20395;-60
2021/07/17 07:22:10;;;;;;;10.02;6.03;;;;;;;22.93;84.87;99858.50;6042730;23;20003;-60
2021/07/17 07:24:35;;;;;;;9.93;5.32;;;;;;;22.96;84.98;99860.38;6042896;23;20011;-59
2021/07/17 07:27:01;;;;;;;9.20;6.43;;;;;;;23.00;85.39;99852.34;6042673;23;20062;-60
2021/07/17 07:29:26;;;;;;;8.88;6.45;;;;;;;23.03;85.64;99848.50;6042910;23;20364;-65
2021/07/17 07:31:53;;;;;;;8.90;6.05;;;;;;;23.06;85.48;99850.38;6042868;23;20003;-66
2021/07/17 07:34:20;;;;;;;9.40;6.43;;;;;;;23.09;85.17;99849.34;6043122;23;20313;-65
2021/07/17 07:36:49;;;;;;;10.85;6.15;;;;;;;23.15;85.28;99854.38;6042825;23;19999;-66
2021/07/17 07:39:16;;;;;;;8.18;6.32;;;;;;;23.20;85.19;99847.91;6043019;23;20364;-65
2021/07/17 07:41:42;;;;;;;9.32;6.60;;;;;;;23.23;85.03;99852.63;6043061;23;20008;-65
2021/07/17 07:44:07;;;;;;;11.00;7.10;;;;;;;23.29;84.73;99851.41;6042718;23;20010;-65
2021/07/17 07:46:34;;;;;;;12.60;7.00;;;;;;;23.36;84.48;99861.66;6042902;23;20007;-66
2021/07/17 07:49:00;;;;;;;6.43;5.45;;;;;;;23.42;84.72;99866.16;6042828;23;20034;-66
2021/07/17 07:51:26;;;;;;;13.13;7.63;;;;;;;23.50;84.70;99866.50;6042997;23;20003;-66
2021/07/17 07:53:51;;;;;;;15.75;7.78;;;;;;;23.59;84.17;99869.25;6042644;23;20073;-65
2021/07/17 07:56:17;;;;;;;12.45;7.78;;;;;;;23.72;84.07;99874.56;6042815;23;20349;-60
2021/07/17 07:58:42;;;;;;;10.77;6.72;;;;;;;23.83;84.28;99879.63;6042886;23;20011;-66
2021/07/17 08:01:07;;;;;;;11.70;7.78;;;;;;;23.97;84.43;99881.59;6042675;23;20000;-67
2021/07/17 08:03:33;;;;;;;8.50;6.82;;;;;;;24.09;84.67;99880.41;6042945;23;20014;-64
2021/07/17 08:05:59;;;;;;;9.85;7.72;;;;;;;24.20;82.91;99874.75;6042536;23;20142;-66
2021/07/17 08:08:24;;;;;;;11.40;7.70;;;;;;;24.32;82.59;99884.28;6042619;23;20003;-64
2021/07/17 08:10:49;;;;;;;10.18;7.65;;;;;;;24.42;82.64;99870.53;6042692;23;20003;-65
2021/07/17 08:13:15;;;;;;;12.40;8.40;;;;;;;24.49;81.30;99870.03;6042809;23;20044;-65
2021/07/17 08:15:40;;;;;;;12.93;7.75;;;;;;;24.55;81.00;99873.75;6042770;23;20364;-64
2021/07/17 08:18:07;;;;;;;11.13;7.30;;;;;;;24.56;80.03;99875.31;6042654;23;20007;-64
2021/07/17 08:20:33;;;;;;;11.38;7.70;;;;;;;24.59;79.52;99874.28;6042897;23;20007;-65
2021/07/17 08:22:58;;;;;;;9.20;7.80;;;;;;;24.59;78.19;99874.28;6042745;23;20004;-63
2021/07/17 08:25:23;;;;;;;10.73;7.38;;;;;;;24.61;78.68;99883.19;6042676;23;20114;-61
2021/07/17 08:27:49;;;;;;;14.25;7.50;;;;;;;24.66;78.71;99879.56;6042736;23;20015;-65
2021/07/17 08:30:15;;;;;;;13.30;8.07;;;;;;;24.69;78.66;99887.16;6042595;23;20007;-65
2021/07/17 08:32:40;;;;;;;10.00;7.70;;;;;;;24.71;76.67;99878.81;6042744;23;20011;-66
2021/07/17 08:35:06;;;;;;;13.32;8.27;;;;;;;24.74;76.82;99885.63;6042487;23;20278;-66
2021/07/17 08:37:34;;;;;;;8.88;7.18;;;;;;;24.80;78.26;99872.84;6042762;23;20029;-65
2021/07/17 08:40:03;;;;;;;14.27;7.97;;;;;;;24.84;76.62;99867.66;6042522;23;20086;-66
2021/07/17 08:42:34;;;;;;;10.27;7.22;;;;;;;24.90;76.55;99877.06;6042620;23;20003;-65
2021/07/17 08:45:01;;;;;;;;;;;;;;;24.94;76.48;99866.16;6043503;23;20264;-65
2021/07/17 08:47:30;;;;;;;11.73;7.95;;;;;;;24.96;75.75;99877.13;6042459;23;19910;-66
2021/07/17 08:49:57;;;;;;;10.43;6.90;;;;;;;24.96;75.08;99869.28;6042358;23;20007;-65
2021/07/17 08:52:23;;;;;;;11.70;7.15;;;;;;;24.99;76.06;99873.25;6042571;23;20317;-64
2021/07/17 08:54:49;;;;;;;11.77;7.65;;;;;;;25.03;76.31;99867.25;6042377;23;20007;-64
2021/07/17 08:57:14;;;;;;;10.90;7.88;;;;;;;25.06;75.88;99875.63;6042652;23;20395;-64
2021/07/17 08:59:40;;;;;;;9.27;7.28;;;;;;;25.10;75.79;99866.75;6042454;23;20003;-66
2021/07/17 09:02:06;;;;;;;12.07;8.70;;;;;;;25.12;74.88;99864.94;6042697;23;19999;-62
2021/07/17 09:04:31;;;;;;;9.65;7.65;;;;;;;25.16;74.63;99870.44;6042259;23;20063;-64
2021/07/17 09:06:57;;;;;;;12.23;8.20;;;;;;;25.17;74.42;99872.78;6042852;23;20058;-64
2021/07/17 09:09:34;;;;;;;10.75;8.45;;;;;;;25.22;75.10;99871.25;6042447;23;20011;-65
2021/07/17 09:12:00;;;;;;;10.60;8.30;;;;;;;25.24;74.74;99866.56;6042740;23;20451;-65
2021/07/17 09:14:36;;;;;;;14.25;8.27;;;;;;;25.28;73.94;99872.06;6044254;23;20004;-64
2021/07/17 09:17:02;;;;;;;12.77;8.00;;;;;;;25.30;74.06;99872.34;6043978;23;20010;-65
2021/07/17 09:19:28;;;;;;;20.02;8.45;;;;;;;25.34;73.69;99872.88;6043934;23;20004;-65
2021/07/17 09:21:55;;;;;;;11.02;8.68;;;;;;;25.37;73.16;99880.47;6044099;23;20094;-64
2021/07/17 09:24:21;;;;;;;8.35;7.53;;;;;;;25.40;72.64;99872.88;6044034;23;20003;-64
2021/07/17 09:26:58;;;;;;;12.80;8.25;;;;;;;25.44;73.72;99879.16;6043949;23;20045;-66
2021/07/17 09:29:34;;;;;;;13.70;7.93;;;;;;;25.48;73.70;99871.88;6018958;23;20007;-65
2021/07/17 09:31:59;;;;;;;9.45;8.05;;;;;;;25.51;72.47;99885.22;6044388;23;20034;-63
2021/07/17 09:34:28;;;;;;;10.30;8.05;;;;;;;25.56;72.50;99892.28;6043736;23;20019;-65
2021/07/17 09:36:56;;;;;;;12.57;8.23;;;;;;;25.60;73.00;99889.16;6043779;23;20368;-66
2021/07/17 09:39:26;;;;;;;9.25;7.93;;;;;;;25.65;73.51;99879.75;6043951;23;20003;-64
2021/07/17 09:41:58;;;;;;;11.95;8.45;;;;;;;25.71;73.35;99886.31;6044052;23;20004;-63
2021/07/17 09:44:25;;;;;;;9.77;7.65;;;;;;;25.75;71.89;99892.63;6043934;23;20007;-66
2021/07/17 09:46:51;;;;;;;15.10;8.85;;;;;;;25.77;72.20;99893.69;6044167;23;20007;-64
2021/07/17 09:49:18;;;;;;;11.05;7.93;;;;;;;25.82;72.14;99886.38;6043613;23;20007;-66
2021/07/17 09:51:44;;;;;;;10.10;8.27;;;;;;;25.86;71.63;99892.66;6044043;23;20007;-66
2021/07/17 09:54:10;;;;;;;10.90;8.05;;;;;;;25.87;71.40;99897.88;6043867;23;20082;-62
2021/07/17 09:56:40;;;;;;;11.82;8.63;;;;;;;25.88;72.13;99898.66;6043817;23;20038;-66
2021/07/17 09:59:13;;;;;;;13.07;8.80;;;;;;;25.91;71.91;99900.50;6043750;23;20007;-61
2021/07/17 10:01:43;;;;;;;10.50;8.95;;;;;;;25.92;71.60;99887.69;6043801;23;20057;-66
2021/07/17 10:04:10;;;;;;;12.88;8.90;;;;;;;25.95;72.28;99886.63;6043279;23;20086;-60
2021/07/17 10:06:59;;;;;;;11.95;9.32;;;;;;;26.01;72.60;99884.53;6043713;23;20010;-66
2021/07/17 10:09:30;;;;;;;13.45;9.02;;;;;;;26.06;72.52;99883.78;6043526;23;20007;-64
2021/07/17 10:12:08;;;;;;;13.18;9.38;;;;;;;26.12;72.17;99887.44;6043931;23;20007;-61
2021/07/17 10:14:38;;;;;;;10.45;8.35;;;;;;;26.13;71.58;99889.00;6043654;23;20364;-60
2021/07/17 10:17:09;;;;;;;13.35;9.52;;;;;;;26.18;71.12;99893.19;6043401;23;20007;-61
2021/07/17 10:19:36;;;;;;;13.45;8.48;;;;;;;26.19;70.99;99891.88;6044108;23;20136;-63
2021/07/17 10:22:03;;;;;;;13.40;9.07;;;;;;;26.21;71.76;99894.25;6043319;23;20007;-64
2021/07/17 10:24:29;;;;;;;11.00;9.48;;;;;;;26.21;71.37;99894.25;6043598;23;20078;-66
2021/07/17 10:26:55;;;;;;;17.17;9.05;;;;;;;26.23;72.45;99897.38;6043279;23;20057;-64
2021/07/17 10:29:21;;;;;;;14.68;9.25;;;;;;;26.26;71.61;99896.34;6043682;23;20059;-65
2021/07/17 10:31:48;;;;;;;11.75;8.90;;;;;;;26.26;71.37;99897.13;6043142;23;20508;-62
2021/07/17 10:34:15;;;;;;;11.57;9.40;;;;;;;26.28;71.69;99888.75;6043630;23;20033;-63
2021/07/17 10:36:57;;;;;;;16.45;10.00;;;;;;;26.30;71.53;99891.91;6043908;23;20006;-63
2021/07/17 10:39:29;;;;;;;10.43;9.30;;;;;;;26.33;72.26;99896.63;6043480;23;20089;-62
2021/07/17 10:41:56;;;;;;;14.35;10.05;;;;;;;26.36;71.28;99892.72;6043474;23;20003;-64
2021/07/17 10:44:44;;;;;;;12.05;10.20;;;;;;;26.37;71.25;99896.38;6043279;23;20027;-61
2021/07/17 10:47:10;;;;;;;12.23;10.43;;;;;;;26.36;70.36;99889.03;6043090;23;20014;-63
2021/07/17 10:49:42;;;;;;;12.50;10.10;;;;;;;26.34;70.43;99894.56;6043469;23;20058;-64
2021/07/17 10:52:08;;;;;;;13.05;10.73;;;;;;;26.29;70.33;99889.53;6043415;23;20162;-64
2021/07/17 10:54:34;;;;;;;15.00;10.48;;;;;;;26.24;70.52;99882.47;6043277;23;20090;-63
2021/07/17 10:56:59;;;;;;;14.05;10.57;;;;;;;26.21;70.85;99888.47;6043138;23;20014;-63
2021/07/17 10:59:39;;;;;;;16.70;11.35;;;;;;;26.16;72.29;99881.41;6043193;23;20082;-62
2021/07/17 11:02:05;;;;;;;15.95;11.02;;;;;;;26.14;72.30;99884.81;6042901;23;20034;-63
2021/07/17 11:04:44;;;;;;;14.23;10.57;;;;;;;26.12;71.22;99884.56;6043142;23;20003;-65
2021/07/17 11:07:15;;;;;;;12.80;10.63;;;;;;;26.09;71.55;99873.31;6043441;23;20066;-62
2021/07/17 11:09:56;;;;;;;17.25;9.80;;;;;;;26.09;71.85;99879.84;6043080;23;20018;-62
2021/07/17 11:12:25;;;;;;;;;;;;;;;26.10;71.98;99866.25;6043746;23;20010;-65
2021/07/17 11:14:50;;;;;;;20.10;10.50;;;;;;;26.09;71.84;99871.22;6042599;23;20262;-66
2021/07/17 11:17:46;;;;;;;15.30;10.50;;;;;;;26.09;72.35;99879.06;6043238;23;20003;-63
2021/07/17 11:20:33;;;;;;;16.17;9.88;;;;;;;26.06;71.87;99878.03;6043117;23;20059;-62
2021/07/17 11:23:04;;;;;;;15.10;10.73;;;;;;;26.07;73.12;99873.03;6043172;23;20007;-60
2021/07/17 11:25:30;;;;;;;12.05;10.07;;;;;;;26.07;73.54;99845.03;6043031;23;20014;-63
2021/07/17 11:27:56;;;;;;;13.80;10.15;;;;;;;26.10;74.88;99825.91;6043087;23;20007;-65